Terminal Aerodrome Forecast
Issued by NWS Sioux Falls, SD

Home | Current Version | Previous Version | Graphics & Text | Print | Product List | Glossary Off
Versions: 1 2 3 4 5 6 7 8 9 10 11 12 13 14 15 16 17 18 19

326
FTUS43 KFSD 232320
TAFFSD
TAF
KFSD 232320Z 2400/2424 15014G21KT P6SM FEW200
     FM241100 14013KT P6SM BKN100
     FM241500 15014KT P6SM SHRA VCTS OVC060CB
     FM241700 15014KT 4SM SHRA VCTS BKN045CB
      TEMPO 2417/2421 TSRA BKN035CB
     FM242200 17012KT P6SM OVC070=

USA.gov is the U.S. government's official web portal to all federal, state and local government web resources and services.